Ek-star — LAMT5 — position and weather

sailwx.info

Track history (hours):
 
Tides and Currents Weather Stations Pressure Air Temp Water Temp Dewpoint Dewpoint Depression Visibility Wind Speed Wind Dir Waves Ship Positions

Ek-star

Last reported at 2017-Nov-20 00:26 UTC. Time now 2017-Nov-20 17:09 UTC.
Position N 53°55' E 009°10'.

Length 135 m; draft 6 m.

Type: Tanker. MMSI: 257433000.

Date/timePositionNaut miles runAvg speedWind from/ knotsBaromVisibWave heightAir tempDewpointWater temp
2017-Nov-20 00:26N 53°55' E 009°10'0 0.0
2017-Nov-19 23:56N 53°55' E 009°10'0 0.0
2017-Nov-19 23:29N 53°55' E 009°10'0 0.0
2017-Nov-19 22:59N 53°55' E 009°10'0 0.0
2017-Nov-19 22:30N 53°55' E 009°10'1 2.5
2017-Nov-19 22:00N 53°54' E 009°09'0 0.4
2017-Nov-19 21:30N 53°54' E 009°09'1 2.6
2017-Nov-19 21:00N 53°53' E 009°06'0 0.3
2017-Nov-19 20:30N 53°53' E 009°06'1 2.9
2017-Nov-19 20:00N 53°52' E 009°04'5 9.7
2017-Nov-19 19:30N 53°51' E 008°56'510.3
2017-Nov-19 19:00N 53°50' E 008°48'5 9.9
2017-Nov-19 18:28N 53°54' E 008°41'4 9.5
2017-Nov-19 18:00N 53°58' E 008°36'611.2
2017-Nov-19 17:28N 53°59' E 008°26'612.0
2017-Nov-19 17:00N 53°60' E 008°17'713.3
2017-Nov-19 16:30N 53°58' E 008°06'612.6
2017-Nov-19 16:00N 53°57' E 007°55'144 6.3
2017-Nov-18 17:16N 52°55' E 004°17'1611.7
2017-Nov-18 15:52N 52°40' E 004°07'411.4
2017-Nov-18 15:29N 52°36' E 004°06'510.1
2017-Nov-18 15:00N 52°32' E 004°11'3 5.3
2017-Nov-18 14:27N 52°31' E 004°16'0 0.2
2017-Nov-18 13:57N 52°31' E 004°16'0 0.1
2017-Nov-18 13:30N 52°31' E 004°16'0 0.1
2017-Nov-18 13:00N 52°31' E 004°16'0 0.1
2017-Nov-18 12:27N 52°31' E 004°16'0 0.2
2017-Nov-18 12:00N 52°31' E 004°16'0 0.1
2017-Nov-18 11:24N 52°31' E 004°16'0 0.2
2017-Nov-18 11:00N 52°31' E 004°16'0 0.2
2017-Nov-18 10:30N 52°31' E 004°16'0 0.0
2017-Nov-18 10:00N 52°31' E 004°16'0 0.0
2017-Nov-18 09:21N 52°31' E 004°16'0 0.0
2017-Nov-18 09:00N 52°31' E 004°16'0 0.0
2017-Nov-18 08:30N 52°31' E 004°16'0 0.0
2017-Nov-18 08:00N 52°31' E 004°16'0 0.0
2017-Nov-18 07:30N 52°31' E 004°16'0 0.0
2017-Nov-18 06:57N 52°31' E 004°16'0 0.0
2017-Nov-18 06:27N 52°31' E 004°16'0 0.0
2017-Nov-18 06:00N 52°31' E 004°16'0 0.0
2017-Nov-18 05:27N 52°31' E 004°16'0 0.0
2017-Nov-18 04:51N 52°31' E 004°16'0 0.0
2017-Nov-18 04:30N 52°31' E 004°16'0 0.0
2017-Nov-18 03:48N 52°31' E 004°16'0 0.1
2017-Nov-18 03:15N 52°31' E 004°16'0 0.0
2017-Nov-18 02:51N 52°31' E 004°16'0 0.0
2017-Nov-18 02:30N 52°31' E 004°16'0 0.0
2017-Nov-18 01:48N 52°31' E 004°16'0 0.1
2017-Nov-18 01:30N 52°31' E 004°16'0 0.1
2017-Nov-18 00:54N 52°31' E 004°16'0 0.1
2017-Nov-18 00:27N 52°31' E 004°16'0 0.0
2017-Nov-18 00:00N 52°31' E 004°16'0 0.0
2017-Nov-17 23:24N 52°31' E 004°16'0 0.0
2017-Nov-17 23:00N 52°31' E 004°16'0 0.0
2017-Nov-17 22:30N 52°31' E 004°16'0 0.1
2017-Nov-17 21:54N 52°31' E 004°16'0 0.0
2017-Nov-17 21:30N 52°31' E 004°16'0 0.2
2017-Nov-17 21:00N 52°31' E 004°16'611.5
2017-Nov-17 20:30N 52°29' E 004°25'611.1
2017-Nov-17 20:00N 52°28' E 004°34'2 3.5
2017-Nov-17 19:30N 52°28' E 004°36'1 1.3
2017-Nov-17 19:00N 52°28' E 004°38'1 1.4
2017-Nov-17 18:30N 52°28' E 004°39'2 4.7
2017-Nov-17 18:00N 52°27' E 004°42'3 6.8
2017-Nov-17 17:30N 52°25' E 004°46'0 0.5
2017-Nov-17 16:58N 52°24' E 004°46'0 0.0
2017-Nov-17 16:22N 52°24' E 004°46'0 0.0
2017-Nov-17 15:58N 52°24' E 004°46'0 0.0
2017-Nov-17 15:22N 52°24' E 004°46'0 0.0
2017-Nov-17 14:46N 52°24' E 004°46'0 0.0
2017-Nov-17 14:25N 52°24' E 004°46'0 0.0
2017-Nov-17 13:43N 52°24' E 004°46'0 0.0
2017-Nov-17 13:13N 52°24' E 004°46'0 0.0
2017-Nov-17 12:19N 52°24' E 004°46'0 0.0
2017-Nov-17 11:55N 52°24' E 004°46'0 0.0
2017-Nov-17 11:25N 52°24' E 004°46'0 0.0
2017-Nov-17 10:40N 52°24' E 004°46'0 0.0
2017-Nov-17 10:25N 52°24' E 004°46'0 0.0
2017-Nov-17 09:31N 52°24' E 004°46'0 0.0
2017-Nov-17 09:28N 52°24' E 004°46'0 0.0
2017-Nov-17 08:10N 52°24' E 004°46'0 0.0
2017-Nov-17 07:58N 52°24' E 004°46'0 0.0
2017-Nov-17 07:19N 52°24' E 004°46'0 0.0
2017-Nov-17 06:43N 52°24' E 004°46'0 0.0
2017-Nov-17 05:55N 52°24' E 004°46'0 0.0
2017-Nov-17 05:19N 52°24' E 004°46'0 0.0
2017-Nov-17 04:49N 52°24' E 004°46'0 0.0
2017-Nov-17 04:25N 52°24' E 004°46'0 0.0
2017-Nov-17 03:58N 52°24' E 004°46'0 0.0
2017-Nov-17 03:28N 52°24' E 004°46'0 0.0
2017-Nov-17 02:49N 52°24' E 004°46'0 0.0
2017-Nov-17 02:22N 52°24' E 004°46'0 0.0
2017-Nov-17 01:55N 52°24' E 004°46'0 0.0
2017-Nov-17 01:28N 52°24' E 004°46'0 0.0
2017-Nov-17 00:55N 52°24' E 004°46'0 0.0
2017-Nov-17 00:19N 52°24' E 004°46'0 0.0
2017-Nov-16 23:49N 52°24' E 004°46'0 0.0
2017-Nov-16 23:25N 52°24' E 004°46'0 0.0
2017-Nov-16 22:37N 52°24' E 004°46'0 0.0
2017-Nov-16 22:13N 52°24' E 004°46'0 0.0
2017-Nov-16 21:40N 52°24' E 004°46'0 0.0
2017-Nov-16 21:19N 52°24' E 004°46'0 0.0
2017-Nov-16 20:46N 52°24' E 004°46'0 0.0
2017-Nov-16 20:10N 52°24' E 004°46'0 0.0
2017-Nov-16 19:58N 52°24' E 004°46'0 0.0
2017-Nov-16 19:28N 52°24' E 004°46'0 0.0
2017-Nov-16 18:46N 52°24' E 004°46'0 0.0
2017-Nov-16 18:28N 52°24' E 004°46'0 0.0
2017-Nov-16 17:37N 52°24' E 004°46'0 0.0
2017-Nov-16 17:25N 52°24' E 004°46'0 0.0
2017-Nov-16 16:46N 52°24' E 004°46'0 0.0
2017-Nov-16 16:25N 52°24' E 004°46'0 0.0
2017-Nov-16 15:58N 52°24' E 004°46'0 0.0
2017-Nov-16 15:17N 52°24' E 004°46'0 0.0
2017-Nov-16 14:47N 52°24' E 004°46'0 0.0
2017-Nov-16 14:17N 52°24' E 004°46'0 0.0
2017-Nov-16 13:59N 52°24' E 004°46'0 0.8
2017-Nov-16 13:30N 52°25' E 004°47'4 7.1
2017-Nov-16 13:00N 52°27' E 004°42'3 6.8
2017-Nov-16 12:30N 52°28' E 004°37'0 0.1
2017-Nov-16 12:00N 52°28' E 004°36'2 4.1
2017-Nov-16 11:30N 52°28' E 004°33'3 6.7
2017-Nov-16 11:00N 52°28' E 004°28'4 8.2
2017-Nov-16 10:30N 52°28' E 004°21'4 7.9
2017-Nov-16 10:00N 52°29' E 004°15'4 7.8
2017-Nov-16 09:30N 52°29' E 004°08'4 7.9
2017-Nov-16 09:00N 52°28' E 004°02'7811.9
2017-Nov-16 02:27N 51°38' E 002°24'714.0
2017-Nov-16 01:55N 51°32' E 002°16'614.2
2017-Nov-16 01:30N 51°27' E 002°12'612.0
2017-Nov-16 01:00N 51°21' E 002°08'713.2
2017-Nov-16 00:30N 51°15' E 002°04'714.5
2017-Nov-16 00:00N 51°11' E 001°55'815.5
2017-Nov-15 23:30N 51°06' E 001°45'816.7
2017-Nov-15 23:00N 51°00' E 001°36'815.8
2017-Nov-15 22:30N 50°54' E 001°27'5213.6
2017-Nov-15 18:42N 50°25' E 000°20'315.0
2017-Nov-15 18:30N 50°24' E 000°16'815.0
2017-Nov-15 17:57N 50°23' E 000°03'614.7
2017-Nov-15 17:30N 50°24' W 000°07'814.7
2017-Nov-15 16:56N 50°27' W 000°19'814.5
2017-Nov-15 16:24N 50°31' W 000°30'614.2
2017-Nov-15 15:59N 50°33' W 000°39'714.2
2017-Nov-15 15:28N 50°37' W 000°49'613.6
2017-Nov-15 15:01N 50°40' W 000°57'612.1
2017-Nov-15 14:31N 50°44' W 001°04'612.4
2017-Nov-15 14:01N 50°46' W 001°14'510.4
2017-Nov-15 13:30N 50°50' W 001°19'1 1.9
2017-Nov-15 13:00N 50°50' W 001°20'0 0.0
2017-Nov-15 12:30N 50°50' W 001°20'0 0.0
2017-Nov-15 12:00N 50°50' W 001°20'0 0.0
2017-Nov-15 11:30N 50°50' W 001°20'0 0.0
2017-Nov-15 11:00N 50°50' W 001°20'0 0.0
2017-Nov-15 10:30N 50°50' W 001°20'0 0.0
2017-Nov-15 10:00N 50°50' W 001°20'0 0.0
2017-Nov-15 09:30N 50°50' W 001°20'0 0.0
2017-Nov-15 09:00N 50°50' W 001°20'0 0.0
2017-Nov-15 08:30N 50°50' W 001°20'0 0.0
2017-Nov-15 08:00N 50°50' W 001°20'0 0.0
2017-Nov-15 07:30N 50°50' W 001°20'0 0.0
2017-Nov-15 07:00N 50°50' W 001°20'0 0.0
2017-Nov-15 06:30N 50°50' W 001°20'0 0.0
2017-Nov-15 06:00N 50°50' W 001°20'0 0.0
2017-Nov-15 05:30N 50°50' W 001°20'0 0.0
2017-Nov-15 05:00N 50°50' W 001°20'0 0.0
2017-Nov-15 04:30N 50°50' W 001°20'0 0.0
2017-Nov-15 04:00N 50°50' W 001°20'0 0.0
2017-Nov-15 03:30N 50°50' W 001°20'0 0.0
2017-Nov-15 03:00N 50°50' W 001°20'0 0.0
2017-Nov-15 02:30N 50°50' W 001°20'0 0.0
2017-Nov-15 02:00N 50°50' W 001°20'0 0.0
2017-Nov-15 01:30N 50°50' W 001°20'0 0.0
2017-Nov-15 01:00N 50°50' W 001°20'0 0.0
2017-Nov-15 00:30N 50°50' W 001°20'0 0.0
2017-Nov-15 00:00N 50°50' W 001°20'0 0.0
2017-Nov-14 23:30N 50°50' W 001°20'0 0.0
2017-Nov-14 23:00N 50°50' W 001°20'0 0.0
2017-Nov-14 22:30N 50°50' W 001°20'0 0.0
2017-Nov-14 22:00N 50°50' W 001°20'0 0.0
2017-Nov-14 21:27N 50°50' W 001°20'0 0.0
2017-Nov-14 21:00N 50°50' W 001°20'0 0.0
2017-Nov-14 20:30N 50°50' W 001°20'0 0.0
2017-Nov-14 20:00N 50°50' W 001°20'0 0.0
2017-Nov-14 19:30N 50°50' W 001°20'0 0.0
2017-Nov-14 19:00N 50°50' W 001°20'0 0.0
2017-Nov-14 18:30N 50°50' W 001°20'0 0.0
2017-Nov-14 18:00N 50°50' W 001°20'0 0.0
2017-Nov-14 17:30N 50°50' W 001°20'0 0.0
2017-Nov-14 17:00N 50°50' W 001°20'0 0.0
2017-Nov-14 16:30N 50°50' W 001°20'0 0.0
2017-Nov-14 16:00N 50°50' W 001°20'0 0.0
2017-Nov-14 15:30N 50°50' W 001°20'1 1.0
2017-Nov-14 15:00N 50°50' W 001°19'4 7.3
2017-Nov-14 14:30N 50°47' W 001°17'1 2.4
2017-Nov-14 13:58N 50°47' W 001°15'0 0.0
2017-Nov-14 13:28N 50°47' W 001°15'0 0.0
2017-Nov-14 12:58N 50°47' W 001°15'0 0.0
2017-Nov-14 12:28N 50°47' W 001°15'0 0.0
2017-Nov-14 11:58N 50°47' W 001°15'0 0.3
2017-Nov-14 11:28N 50°47' W 001°15'0 0.1
2017-Nov-14 10:58N 50°47' W 001°15'0 0.0
2017-Nov-14 10:28N 50°47' W 001°15'0 0.0
2017-Nov-14 09:58N 50°47' W 001°15'0 0.0
2017-Nov-14 09:28N 50°47' W 001°15'0 0.1
2017-Nov-14 08:58N 50°47' W 001°15'0 0.4
2017-Nov-14 08:28N 50°47' W 001°15'0 0.1
2017-Nov-14 07:58N 50°47' W 001°15'0 0.1
2017-Nov-14 07:28N 50°47' W 001°15'0 0.0
2017-Nov-14 06:58N 50°47' W 001°15'0 0.0
2017-Nov-14 06:28N 50°47' W 001°15'0 0.0
2017-Nov-14 05:58N 50°47' W 001°15'0 0.0
2017-Nov-14 05:28N 50°47' W 001°15'0 0.0
2017-Nov-14 04:58N 50°47' W 001°15'0 0.0
2017-Nov-14 04:28N 50°47' W 001°15'0 0.1
2017-Nov-14 03:58N 50°47' W 001°15'0 0.0
2017-Nov-14 03:28N 50°47' W 001°15'0 0.0
2017-Nov-14 02:58N 50°47' W 001°15'0 0.0
2017-Nov-14 02:28N 50°47' W 001°15'0 0.0
2017-Nov-14 01:58N 50°47' W 001°15'0 0.0
2017-Nov-14 01:28N 50°47' W 001°15'0 0.1
2017-Nov-14 00:58N 50°47' W 001°15'0 0.0
2017-Nov-14 00:28N 50°47' W 001°15'0 0.1
2017-Nov-13 23:58N 50°47' W 001°15'0 0.1
2017-Nov-13 23:28N 50°47' W 001°15'0 0.1
2017-Nov-13 22:58N 50°47' W 001°15'0 0.0
2017-Nov-13 22:25N 50°47' W 001°15'0 0.7
2017-Nov-13 22:00N 50°47' W 001°15'5 0.2
2017-Nov-13 02:00N 50°51' W 001°20'0 0.0
2017-Nov-13 01:30N 50°51' W 001°20'0 0.0
2017-Nov-13 01:00N 50°51' W 001°20'0 0.0
2017-Nov-13 00:30N 50°51' W 001°20'0 0.0
2017-Nov-13 00:00N 50°51' W 001°20'0 0.0
2017-Nov-12 23:30N 50°51' W 001°20'0 0.0
2017-Nov-12 23:00N 50°51' W 001°20'0 0.0
2017-Nov-12 22:30N 50°51' W 001°20'0 0.0
2017-Nov-12 22:00N 50°51' W 001°20'0 0.0
2017-Nov-12 21:30N 50°51' W 001°20'0 0.0
2017-Nov-12 21:00N 50°51' W 001°20'0 0.0
2017-Nov-12 20:30N 50°51' W 001°20'0 0.0
2017-Nov-12 20:00N 50°51' W 001°20'0 0.0
2017-Nov-12 19:30N 50°51' W 001°20'0 0.0
2017-Nov-12 19:00N 50°51' W 001°20'0 0.0
2017-Nov-12 18:30N 50°51' W 001°20'0 0.0
2017-Nov-12 18:00N 50°51' W 001°20'0 0.0
2017-Nov-12 17:30N 50°51' W 001°20'0 0.0
2017-Nov-12 17:00N 50°51' W 001°20'0 0.0
2017-Nov-12 16:30N 50°51' W 001°20'0 0.0
2017-Nov-12 16:00N 50°51' W 001°20'0 0.0
2017-Nov-12 15:30N 50°51' W 001°20'0 0.0
2017-Nov-12 15:00N 50°51' W 001°20'0 0.0
2017-Nov-12 14:30N 50°51' W 001°20'0 0.0
2017-Nov-12 14:00N 50°51' W 001°20'0 0.0
2017-Nov-12 13:30N 50°51' W 001°20'0 0.0
2017-Nov-12 13:00N 50°51' W 001°20'0 0.0
2017-Nov-12 12:30N 50°51' W 001°20'0 0.0
2017-Nov-12 12:00N 50°51' W 001°20'0 0.0
2017-Nov-12 11:30N 50°51' W 001°20'0 0.0
2017-Nov-12 11:00N 50°51' W 001°20'0 0.0
2017-Nov-12 10:30N 50°51' W 001°20'0 0.0
2017-Nov-12 10:00N 50°51' W 001°20'0 0.0
2017-Nov-12 09:30N 50°51' W 001°20'0 0.0
2017-Nov-12 09:00N 50°51' W 001°20'0 0.0
2017-Nov-12 08:30N 50°51' W 001°20'0 0.0
2017-Nov-12 08:00N 50°51' W 001°20'0 0.0
2017-Nov-12 07:30N 50°51' W 001°20'0 0.0
2017-Nov-12 07:00N 50°51' W 001°20'0 0.0
2017-Nov-12 06:30N 50°51' W 001°20'0 0.0
2017-Nov-12 06:00N 50°51' W 001°20'0 0.0
2017-Nov-12 05:30N 50°51' W 001°20'0 0.0
2017-Nov-12 05:00N 50°51' W 001°20'0 0.0
2017-Nov-12 04:30N 50°51' W 001°20'0 0.0
2017-Nov-12 04:00N 50°51' W 001°20'0 0.0
2017-Nov-12 03:30N 50°51' W 001°20'0 0.0
2017-Nov-12 03:00N 50°51' W 001°20'0 0.0
2017-Nov-12 02:30N 50°51' W 001°20'0 0.0
2017-Nov-12 02:00N 50°51' W 001°20'0 0.0
2017-Nov-12 01:30N 50°51' W 001°20'0 0.0
2017-Nov-12 01:00N 50°51' W 001°20'0 0.0
2017-Nov-12 00:30N 50°51' W 001°20'0 0.0
2017-Nov-12 00:00N 50°51' W 001°20'0 0.0
2017-Nov-11 23:30N 50°51' W 001°20'0 0.0
2017-Nov-11 23:00N 50°51' W 001°20'0 0.0
2017-Nov-11 22:30N 50°51' W 001°20'0 0.0
2017-Nov-11 22:00N 50°51' W 001°20'0 0.0
2017-Nov-11 21:30N 50°51' W 001°20'0 0.0
2017-Nov-11 21:00N 50°51' W 001°20'0 0.0
2017-Nov-11 20:30N 50°51' W 001°20'0 0.0
2017-Nov-11 20:00N 50°51' W 001°20'0 0.0
2017-Nov-11 19:30N 50°51' W 001°20'0 0.0
2017-Nov-11 19:00N 50°51' W 001°20'0 0.0
2017-Nov-11 18:30N 50°51' W 001°20'0 0.0
2017-Nov-11 18:00N 50°51' W 001°20'0 0.0
2017-Nov-11 17:30N 50°51' W 001°20'0 0.0
2017-Nov-11 17:00N 50°51' W 001°20'0 0.0
2017-Nov-11 16:30N 50°51' W 001°20'0 0.0
2017-Nov-11 16:00N 50°51' W 001°20'0 0.0
2017-Nov-11 15:30N 50°51' W 001°20'0 0.0
2017-Nov-11 15:00N 50°51' W 001°20'0 0.0
2017-Nov-11 14:30N 50°51' W 001°20'0 0.0
2017-Nov-11 14:00N 50°51' W 001°20'0 0.0
2017-Nov-11 13:30N 50°51' W 001°20'0 0.0
2017-Nov-11 13:00N 50°51' W 001°20'0 0.0
2017-Nov-11 12:30N 50°51' W 001°20'0 0.0
2017-Nov-11 12:00N 50°51' W 001°20'0 0.0
2017-Nov-11 11:30N 50°51' W 001°20'0 0.0
2017-Nov-11 11:00N 50°51' W 001°20'0 0.0
2017-Nov-11 10:30N 50°51' W 001°20'0 0.0
2017-Nov-11 10:00N 50°51' W 001°20'0 0.0
2017-Nov-11 09:30N 50°51' W 001°20'0 0.0
2017-Nov-11 09:00N 50°51' W 001°20'0 0.0
2017-Nov-11 08:30N 50°51' W 001°20'0 0.0
2017-Nov-11 08:00N 50°51' W 001°20'0 0.0
2017-Nov-11 07:30N 50°51' W 001°20'0 0.0
2017-Nov-11 07:00N 50°51' W 001°20'0 0.0
2017-Nov-11 06:30N 50°51' W 001°20'0 0.0
2017-Nov-11 06:00N 50°51' W 001°20'0 0.0
2017-Nov-11 05:30N 50°51' W 001°20'0 0.0
2017-Nov-11 05:00N 50°51' W 001°20'0 0.0
2017-Nov-11 04:30N 50°51' W 001°20'0 0.0
2017-Nov-11 04:00N 50°51' W 001°20'0 0.0
2017-Nov-11 03:30N 50°51' W 001°20'0 0.0
2017-Nov-11 03:00N 50°51' W 001°20'0 0.0
2017-Nov-11 02:30N 50°51' W 001°20'0 0.0
2017-Nov-11 02:00N 50°51' W 001°20'0 0.0
2017-Nov-11 01:30N 50°51' W 001°20'0 0.0
2017-Nov-11 01:00N 50°51' W 001°20'0 0.0
2017-Nov-11 00:30N 50°51' W 001°20'0 0.0
2017-Nov-11 00:00N 50°51' W 001°20'0 0.0
2017-Nov-10 23:30N 50°51' W 001°20'0 0.0
2017-Nov-10 23:00N 50°51' W 001°20'0 0.0
2017-Nov-10 22:30N 50°51' W 001°20'0 0.0
2017-Nov-10 22:00N 50°51' W 001°20'0 0.0
2017-Nov-10 21:30N 50°51' W 001°20'0 0.0
2017-Nov-10 21:00N 50°51' W 001°20'0 0.0
2017-Nov-10 20:30N 50°51' W 001°20'0 0.0
2017-Nov-10 20:00N 50°51' W 001°20'0 0.0
2017-Nov-10 19:30N 50°51' W 001°20'0 0.0
2017-Nov-10 19:00N 50°51' W 001°20'0 0.0
2017-Nov-10 18:30N 50°51' W 001°20'0 0.0
2017-Nov-10 18:00N 50°51' W 001°20'0 0.0
2017-Nov-10 17:30N 50°51' W 001°20'0 0.0
2017-Nov-10 17:00N 50°51' W 001°20'0 0.0
2017-Nov-10 16:30N 50°51' W 001°20'0 0.0
2017-Nov-10 16:00N 50°51' W 001°20'0 0.0
2017-Nov-10 15:30N 50°51' W 001°20'0 0.0
2017-Nov-10 15:00N 50°51' W 001°20'0 0.0
2017-Nov-10 14:30N 50°51' W 001°20'0 0.0
2017-Nov-10 14:00N 50°51' W 001°20'0 0.0
2017-Nov-10 13:30N 50°51' W 001°20'0 0.0
2017-Nov-10 13:00N 50°51' W 001°20'0 0.0
2017-Nov-10 12:30N 50°51' W 001°20'0 0.0
2017-Nov-10 12:00N 50°51' W 001°20'0 0.0
2017-Nov-10 11:30N 50°51' W 001°20'0 0.0
2017-Nov-10 11:00N 50°51' W 001°20'0 0.0
2017-Nov-10 10:30N 50°51' W 001°20'0 0.0
2017-Nov-10 10:00N 50°51' W 001°20'0 0.0
2017-Nov-10 09:29N 50°51' W 001°20'0 0.0
2017-Nov-10 08:59N 50°51' W 001°20'0 0.0
2017-Nov-10 08:29N 50°51' W 001°20'0 0.0
2017-Nov-10 07:59N 50°51' W 001°20'0 0.0
2017-Nov-10 07:29N 50°51' W 001°20'0 0.0
2017-Nov-10 06:59N 50°51' W 001°20'0 0.0
2017-Nov-10 06:29N 50°51' W 001°20'0 0.0
2017-Nov-10 05:59N 50°51' W 001°20'0 0.0
2017-Nov-10 05:29N 50°51' W 001°20'0 0.0
2017-Nov-10 04:59N 50°51' W 001°20'0 0.0
2017-Nov-10 04:29N 50°51' W 001°20'0 0.0
2017-Nov-10 03:59N 50°51' W 001°20'0 0.0
2017-Nov-10 03:29N 50°51' W 001°20'0 0.0
2017-Nov-10 02:59N 50°51' W 001°20'0 0.0
2017-Nov-10 02:29N 50°51' W 001°20'0 0.0
2017-Nov-10 01:59N 50°51' W 001°20'0 0.0
2017-Nov-10 01:29N 50°51' W 001°20'0 0.0
2017-Nov-10 01:00N 50°51' W 001°20'1 1.2
2017-Nov-10 00:30N 50°50' W 001°19'  
Track history (hours):
 
Tides and Currents Weather Stations Pressure Air Temp Water Temp Dewpoint Dewpoint Depression Visibility Wind Speed Wind Dir Waves Ship Positions

Ek-star

Last reported at 2017-Nov-20 00:26 UTC. Time now 2017-Nov-20 17:09 UTC.
Position N 53°55' E 009°10'.

Length 135 m; draft 6 m.

Type: Tanker. MMSI: 257433000.

Date/timePositionNaut miles runAvg speedWind from/ knotsBaromVisibWave heightAir tempDewpointWater temp
2017-Nov-20 00:26N 53°55' E 009°10'0 0.0
2017-Nov-19 23:56N 53°55' E 009°10'0 0.0
2017-Nov-19 23:29N 53°55' E 009°10'0 0.0
2017-Nov-19 22:59N 53°55' E 009°10'0 0.0
2017-Nov-19 22:30N 53°55' E 009°10'1 2.5
2017-Nov-19 22:00N 53°54' E 009°09'0 0.4
2017-Nov-19 21:30N 53°54' E 009°09'1 2.6
2017-Nov-19 21:00N 53°53' E 009°06'0 0.3
2017-Nov-19 20:30N 53°53' E 009°06'1 2.9
2017-Nov-19 20:00N 53°52' E 009°04'5 9.7
2017-Nov-19 19:30N 53°51' E 008°56'510.3
2017-Nov-19 19:00N 53°50' E 008°48'5 9.9
2017-Nov-19 18:28N 53°54' E 008°41'4 9.5
2017-Nov-19 18:00N 53°58' E 008°36'611.2
2017-Nov-19 17:28N 53°59' E 008°26'612.0
2017-Nov-19 17:00N 53°60' E 008°17'713.3
2017-Nov-19 16:30N 53°58' E 008°06'612.6
2017-Nov-19 16:00N 53°57' E 007°55'144 6.3
2017-Nov-18 17:16N 52°55' E 004°17'1611.7
2017-Nov-18 15:52N 52°40' E 004°07'411.4
2017-Nov-18 15:29N 52°36' E 004°06'510.1
2017-Nov-18 15:00N 52°32' E 004°11'3 5.3
2017-Nov-18 14:27N 52°31' E 004°16'0 0.2
2017-Nov-18 13:57N 52°31' E 004°16'0 0.1
2017-Nov-18 13:30N 52°31' E 004°16'0 0.1
2017-Nov-18 13:00N 52°31' E 004°16'0 0.1
2017-Nov-18 12:27N 52°31' E 004°16'0 0.2
2017-Nov-18 12:00N 52°31' E 004°16'0 0.1
2017-Nov-18 11:24N 52°31' E 004°16'0 0.2
2017-Nov-18 11:00N 52°31' E 004°16'0 0.2
2017-Nov-18 10:30N 52°31' E 004°16'0 0.0
2017-Nov-18 10:00N 52°31' E 004°16'0 0.0
2017-Nov-18 09:21N 52°31' E 004°16'0 0.0
2017-Nov-18 09:00N 52°31' E 004°16'0 0.0
2017-Nov-18 08:30N 52°31' E 004°16'0 0.0
2017-Nov-18 08:00N 52°31' E 004°16'0 0.0
2017-Nov-18 07:30N 52°31' E 004°16'0 0.0
2017-Nov-18 06:57N 52°31' E 004°16'0 0.0
2017-Nov-18 06:27N 52°31' E 004°16'0 0.0
2017-Nov-18 06:00N 52°31' E 004°16'0 0.0
2017-Nov-18 05:27N 52°31' E 004°16'0 0.0
2017-Nov-18 04:51N 52°31' E 004°16'0 0.0
2017-Nov-18 04:30N 52°31' E 004°16'0 0.0
2017-Nov-18 03:48N 52°31' E 004°16'0 0.1
2017-Nov-18 03:15N 52°31' E 004°16'0 0.0
2017-Nov-18 02:51N 52°31' E 004°16'0 0.0
2017-Nov-18 02:30N 52°31' E 004°16'0 0.0
2017-Nov-18 01:48N 52°31' E 004°16'0 0.1
2017-Nov-18 01:30N 52°31' E 004°16'0 0.1
2017-Nov-18 00:54N 52°31' E 004°16'0 0.1
2017-Nov-18 00:27N 52°31' E 004°16'0 0.0
2017-Nov-18 00:00N 52°31' E 004°16'0 0.0
2017-Nov-17 23:24N 52°31' E 004°16'0 0.0
2017-Nov-17 23:00N 52°31' E 004°16'0 0.0
2017-Nov-17 22:30N 52°31' E 004°16'0 0.1
2017-Nov-17 21:54N 52°31' E 004°16'0 0.0
2017-Nov-17 21:30N 52°31' E 004°16'0 0.2
2017-Nov-17 21:00N 52°31' E 004°16'611.5
2017-Nov-17 20:30N 52°29' E 004°25'611.1
2017-Nov-17 20:00N 52°28' E 004°34'2 3.5
2017-Nov-17 19:30N 52°28' E 004°36'1 1.3
2017-Nov-17 19:00N 52°28' E 004°38'1 1.4
2017-Nov-17 18:30N 52°28' E 004°39'2 4.7
2017-Nov-17 18:00N 52°27' E 004°42'3 6.8
2017-Nov-17 17:30N 52°25' E 004°46'0 0.5
2017-Nov-17 16:58N 52°24' E 004°46'0 0.0
2017-Nov-17 16:22N 52°24' E 004°46'0 0.0
2017-Nov-17 15:58N 52°24' E 004°46'0 0.0
2017-Nov-17 15:22N 52°24' E 004°46'0 0.0
2017-Nov-17 14:46N 52°24' E 004°46'0 0.0
2017-Nov-17 14:25N 52°24' E 004°46'0 0.0
2017-Nov-17 13:43N 52°24' E 004°46'0 0.0
2017-Nov-17 13:13N 52°24' E 004°46'0 0.0
2017-Nov-17 12:19N 52°24' E 004°46'0 0.0
2017-Nov-17 11:55N 52°24' E 004°46'0 0.0
2017-Nov-17 11:25N 52°24' E 004°46'0 0.0
2017-Nov-17 10:40N 52°24' E 004°46'0 0.0
2017-Nov-17 10:25N 52°24' E 004°46'0 0.0
2017-Nov-17 09:31N 52°24' E 004°46'0 0.0
2017-Nov-17 09:28N 52°24' E 004°46'0 0.0
2017-Nov-17 08:10N 52°24' E 004°46'0 0.0
2017-Nov-17 07:58N 52°24' E 004°46'0 0.0
2017-Nov-17 07:19N 52°24' E 004°46'0 0.0
2017-Nov-17 06:43N 52°24' E 004°46'0 0.0
2017-Nov-17 05:55N 52°24' E 004°46'0 0.0
2017-Nov-17 05:19N 52°24' E 004°46'0 0.0
2017-Nov-17 04:49N 52°24' E 004°46'0 0.0
2017-Nov-17 04:25N 52°24' E 004°46'0 0.0
2017-Nov-17 03:58N 52°24' E 004°46'0 0.0
2017-Nov-17 03:28N 52°24' E 004°46'0 0.0
2017-Nov-17 02:49N 52°24' E 004°46'0 0.0
2017-Nov-17 02:22N 52°24' E 004°46'0 0.0
2017-Nov-17 01:55N 52°24' E 004°46'0 0.0
2017-Nov-17 01:28N 52°24' E 004°46'0 0.0
2017-Nov-17 00:55N 52°24' E 004°46'0 0.0
2017-Nov-17 00:19N 52°24' E 004°46'0 0.0
2017-Nov-16 23:49N 52°24' E 004°46'0 0.0
2017-Nov-16 23:25N 52°24' E 004°46'0 0.0
2017-Nov-16 22:37N 52°24' E 004°46'0 0.0
2017-Nov-16 22:13N 52°24' E 004°46'0 0.0
2017-Nov-16 21:40N 52°24' E 004°46'0 0.0
2017-Nov-16 21:19N 52°24' E 004°46'0 0.0
2017-Nov-16 20:46N 52°24' E 004°46'0 0.0
2017-Nov-16 20:10N 52°24' E 004°46'0 0.0
2017-Nov-16 19:58N 52°24' E 004°46'0 0.0
2017-Nov-16 19:28N 52°24' E 004°46'0 0.0
2017-Nov-16 18:46N 52°24' E 004°46'0 0.0
2017-Nov-16 18:28N 52°24' E 004°46'0 0.0
2017-Nov-16 17:37N 52°24' E 004°46'0 0.0
2017-Nov-16 17:25N 52°24' E 004°46'0 0.0
2017-Nov-16 16:46N 52°24' E 004°46'0 0.0
2017-Nov-16 16:25N 52°24' E 004°46'0 0.0
2017-Nov-16 15:58N 52°24' E 004°46'0 0.0
2017-Nov-16 15:17N 52°24' E 004°46'0 0.0
2017-Nov-16 14:47N 52°24' E 004°46'0 0.0
2017-Nov-16 14:17N 52°24' E 004°46'0 0.0
2017-Nov-16 13:59N 52°24' E 004°46'0 0.8
2017-Nov-16 13:30N 52°25' E 004°47'4 7.1
2017-Nov-16 13:00N 52°27' E 004°42'3 6.8
2017-Nov-16 12:30N 52°28' E 004°37'0 0.1
2017-Nov-16 12:00N 52°28' E 004°36'2 4.1
2017-Nov-16 11:30N 52°28' E 004°33'3 6.7
2017-Nov-16 11:00N 52°28' E 004°28'4 8.2
2017-Nov-16 10:30N 52°28' E 004°21'4 7.9
2017-Nov-16 10:00N 52°29' E 004°15'4 7.8
2017-Nov-16 09:30N 52°29' E 004°08'4 7.9
2017-Nov-16 09:00N 52°28' E 004°02'7811.9
2017-Nov-16 02:27N 51°38' E 002°24'714.0
2017-Nov-16 01:55N 51°32' E 002°16'614.2
2017-Nov-16 01:30N 51°27' E 002°12'612.0
2017-Nov-16 01:00N 51°21' E 002°08'713.2
2017-Nov-16 00:30N 51°15' E 002°04'714.5
2017-Nov-16 00:00N 51°11' E 001°55'815.5
2017-Nov-15 23:30N 51°06' E 001°45'816.7
2017-Nov-15 23:00N 51°00' E 001°36'815.8
2017-Nov-15 22:30N 50°54' E 001°27'5213.6
2017-Nov-15 18:42N 50°25' E 000°20'315.0
2017-Nov-15 18:30N 50°24' E 000°16'815.0
2017-Nov-15 17:57N 50°23' E 000°03'614.7
2017-Nov-15 17:30N 50°24' W 000°07'814.7
2017-Nov-15 16:56N 50°27' W 000°19'814.5
2017-Nov-15 16:24N 50°31' W 000°30'614.2
2017-Nov-15 15:59N 50°33' W 000°39'714.2
2017-Nov-15 15:28N 50°37' W 000°49'613.6
2017-Nov-15 15:01N 50°40' W 000°57'612.1
2017-Nov-15 14:31N 50°44' W 001°04'612.4
2017-Nov-15 14:01N 50°46' W 001°14'510.4
2017-Nov-15 13:30N 50°50' W 001°19'1 1.9
2017-Nov-15 13:00N 50°50' W 001°20'0 0.0
2017-Nov-15 12:30N 50°50' W 001°20'0 0.0
2017-Nov-15 12:00N 50°50' W 001°20'0 0.0
2017-Nov-15 11:30N 50°50' W 001°20'0 0.0
2017-Nov-15 11:00N 50°50' W 001°20'0 0.0
2017-Nov-15 10:30N 50°50' W 001°20'0 0.0
2017-Nov-15 10:00N 50°50' W 001°20'0 0.0
2017-Nov-15 09:30N 50°50' W 001°20'0 0.0
2017-Nov-15 09:00N 50°50' W 001°20'0 0.0
2017-Nov-15 08:30N 50°50' W 001°20'0 0.0
2017-Nov-15 08:00N 50°50' W 001°20'0 0.0
2017-Nov-15 07:30N 50°50' W 001°20'0 0.0
2017-Nov-15 07:00N 50°50' W 001°20'0 0.0
2017-Nov-15 06:30N 50°50' W 001°20'0 0.0
2017-Nov-15 06:00N 50°50' W 001°20'0 0.0
2017-Nov-15 05:30N 50°50' W 001°20'0 0.0
2017-Nov-15 05:00N 50°50' W 001°20'0 0.0
2017-Nov-15 04:30N 50°50' W 001°20'0 0.0
2017-Nov-15 04:00N 50°50' W 001°20'0 0.0
2017-Nov-15 03:30N 50°50' W 001°20'0 0.0
2017-Nov-15 03:00N 50°50' W 001°20'0 0.0
2017-Nov-15 02:30N 50°50' W 001°20'0 0.0
2017-Nov-15 02:00N 50°50' W 001°20'0 0.0
2017-Nov-15 01:30N 50°50' W 001°20'0 0.0
2017-Nov-15 01:00N 50°50' W 001°20'0 0.0
2017-Nov-15 00:30N 50°50' W 001°20'0 0.0
2017-Nov-15 00:00N 50°50' W 001°20'0 0.0
2017-Nov-14 23:30N 50°50' W 001°20'0 0.0
2017-Nov-14 23:00N 50°50' W 001°20'0 0.0
2017-Nov-14 22:30N 50°50' W 001°20'0 0.0
2017-Nov-14 22:00N 50°50' W 001°20'0 0.0
2017-Nov-14 21:27N 50°50' W 001°20'0 0.0
2017-Nov-14 21:00N 50°50' W 001°20'0 0.0
2017-Nov-14 20:30N 50°50' W 001°20'0 0.0
2017-Nov-14 20:00N 50°50' W 001°20'0 0.0
2017-Nov-14 19:30N 50°50' W 001°20'0 0.0
2017-Nov-14 19:00N 50°50' W 001°20'0 0.0
2017-Nov-14 18:30N 50°50' W 001°20'0 0.0
2017-Nov-14 18:00N 50°50' W 001°20'0 0.0
2017-Nov-14 17:30N 50°50' W 001°20'0 0.0
2017-Nov-14 17:00N 50°50' W 001°20'0 0.0
2017-Nov-14 16:30N 50°50' W 001°20'0 0.0
2017-Nov-14 16:00N 50°50' W 001°20'0 0.0
2017-Nov-14 15:30N 50°50' W 001°20'1 1.0
2017-Nov-14 15:00N 50°50' W 001°19'4 7.3
2017-Nov-14 14:30N 50°47' W 001°17'1 2.4
2017-Nov-14 13:58N 50°47' W 001°15'0 0.0
2017-Nov-14 13:28N 50°47' W 001°15'0 0.0
2017-Nov-14 12:58N 50°47' W 001°15'0 0.0
2017-Nov-14 12:28N 50°47' W 001°15'0 0.0
2017-Nov-14 11:58N 50°47' W 001°15'0 0.3
2017-Nov-14 11:28N 50°47' W 001°15'0 0.1
2017-Nov-14 10:58N 50°47' W 001°15'0 0.0
2017-Nov-14 10:28N 50°47' W 001°15'0 0.0
2017-Nov-14 09:58N 50°47' W 001°15'0 0.0
2017-Nov-14 09:28N 50°47' W 001°15'0 0.1
2017-Nov-14 08:58N 50°47' W 001°15'0 0.4
2017-Nov-14 08:28N 50°47' W 001°15'0 0.1
2017-Nov-14 07:58N 50°47' W 001°15'0 0.1
2017-Nov-14 07:28N 50°47' W 001°15'0 0.0
2017-Nov-14 06:58N 50°47' W 001°15'0 0.0
2017-Nov-14 06:28N 50°47' W 001°15'0 0.0
2017-Nov-14 05:58N 50°47' W 001°15'0 0.0
2017-Nov-14 05:28N 50°47' W 001°15'0 0.0
2017-Nov-14 04:58N 50°47' W 001°15'0 0.0
2017-Nov-14 04:28N 50°47' W 001°15'0 0.1
2017-Nov-14 03:58N 50°47' W 001°15'0 0.0
2017-Nov-14 03:28N 50°47' W 001°15'0 0.0
2017-Nov-14 02:58N 50°47' W 001°15'0 0.0
2017-Nov-14 02:28N 50°47' W 001°15'0 0.0
2017-Nov-14 01:58N 50°47' W 001°15'0 0.0
2017-Nov-14 01:28N 50°47' W 001°15'0 0.1
2017-Nov-14 00:58N 50°47' W 001°15'0 0.0
2017-Nov-14 00:28N 50°47' W 001°15'0 0.1
2017-Nov-13 23:58N 50°47' W 001°15'0 0.1
2017-Nov-13 23:28N 50°47' W 001°15'0 0.1
2017-Nov-13 22:58N 50°47' W 001°15'0 0.0
2017-Nov-13 22:25N 50°47' W 001°15'0 0.7
2017-Nov-13 22:00N 50°47' W 001°15'5 0.2
2017-Nov-13 02:00N 50°51' W 001°20'0 0.0
2017-Nov-13 01:30N 50°51' W 001°20'0 0.0
2017-Nov-13 01:00N 50°51' W 001°20'0 0.0
2017-Nov-13 00:30N 50°51' W 001°20'0 0.0
2017-Nov-13 00:00N 50°51' W 001°20'0 0.0
2017-Nov-12 23:30N 50°51' W 001°20'0 0.0
2017-Nov-12 23:00N 50°51' W 001°20'0 0.0
2017-Nov-12 22:30N 50°51' W 001°20'0 0.0
2017-Nov-12 22:00N 50°51' W 001°20'0 0.0
2017-Nov-12 21:30N 50°51' W 001°20'0 0.0
2017-Nov-12 21:00N 50°51' W 001°20'0 0.0
2017-Nov-12 20:30N 50°51' W 001°20'0 0.0
2017-Nov-12 20:00N 50°51' W 001°20'0 0.0
2017-Nov-12 19:30N 50°51' W 001°20'0 0.0
2017-Nov-12 19:00N 50°51' W 001°20'0 0.0
2017-Nov-12 18:30N 50°51' W 001°20'0 0.0
2017-Nov-12 18:00N 50°51' W 001°20'0 0.0
2017-Nov-12 17:30N 50°51' W 001°20'0 0.0
2017-Nov-12 17:00N 50°51' W 001°20'0 0.0
2017-Nov-12 16:30N 50°51' W 001°20'0 0.0
2017-Nov-12 16:00N 50°51' W 001°20'0 0.0
2017-Nov-12 15:30N 50°51' W 001°20'0 0.0
2017-Nov-12 15:00N 50°51' W 001°20'0 0.0
2017-Nov-12 14:30N 50°51' W 001°20'0 0.0
2017-Nov-12 14:00N 50°51' W 001°20'0 0.0
2017-Nov-12 13:30N 50°51' W 001°20'0 0.0
2017-Nov-12 13:00N 50°51' W 001°20'0 0.0
2017-Nov-12 12:30N 50°51' W 001°20'0 0.0
2017-Nov-12 12:00N 50°51' W 001°20'0 0.0
2017-Nov-12 11:30N 50°51' W 001°20'0 0.0
2017-Nov-12 11:00N 50°51' W 001°20'0 0.0
2017-Nov-12 10:30N 50°51' W 001°20'0 0.0
2017-Nov-12 10:00N 50°51' W 001°20'0 0.0
2017-Nov-12 09:30N 50°51' W 001°20'0 0.0
2017-Nov-12 09:00N 50°51' W 001°20'0 0.0
2017-Nov-12 08:30N 50°51' W 001°20'0 0.0
2017-Nov-12 08:00N 50°51' W 001°20'0 0.0
2017-Nov-12 07:30N 50°51' W 001°20'0 0.0
2017-Nov-12 07:00N 50°51' W 001°20'0 0.0
2017-Nov-12 06:30N 50°51' W 001°20'0 0.0
2017-Nov-12 06:00N 50°51' W 001°20'0 0.0
2017-Nov-12 05:30N 50°51' W 001°20'0 0.0
2017-Nov-12 05:00N 50°51' W 001°20'0 0.0
2017-Nov-12 04:30N 50°51' W 001°20'0 0.0
2017-Nov-12 04:00N 50°51' W 001°20'0 0.0
2017-Nov-12 03:30N 50°51' W 001°20'0 0.0
2017-Nov-12 03:00N 50°51' W 001°20'0 0.0
2017-Nov-12 02:30N 50°51' W 001°20'0 0.0
2017-Nov-12 02:00N 50°51' W 001°20'0 0.0
2017-Nov-12 01:30N 50°51' W 001°20'0 0.0
2017-Nov-12 01:00N 50°51' W 001°20'0 0.0
2017-Nov-12 00:30N 50°51' W 001°20'0 0.0
2017-Nov-12 00:00N 50°51' W 001°20'0 0.0
2017-Nov-11 23:30N 50°51' W 001°20'0 0.0
2017-Nov-11 23:00N 50°51' W 001°20'0 0.0
2017-Nov-11 22:30N 50°51' W 001°20'0 0.0
2017-Nov-11 22:00N 50°51' W 001°20'0 0.0
2017-Nov-11 21:30N 50°51' W 001°20'0 0.0
2017-Nov-11 21:00N 50°51' W 001°20'0 0.0
2017-Nov-11 20:30N 50°51' W 001°20'0 0.0
2017-Nov-11 20:00N 50°51' W 001°20'0 0.0
2017-Nov-11 19:30N 50°51' W 001°20'0 0.0
2017-Nov-11 19:00N 50°51' W 001°20'0 0.0
2017-Nov-11 18:30N 50°51' W 001°20'0 0.0
2017-Nov-11 18:00N 50°51' W 001°20'0 0.0
2017-Nov-11 17:30N 50°51' W 001°20'0 0.0
2017-Nov-11 17:00N 50°51' W 001°20'0 0.0
2017-Nov-11 16:30N 50°51' W 001°20'0 0.0
2017-Nov-11 16:00N 50°51' W 001°20'0 0.0
2017-Nov-11 15:30N 50°51' W 001°20'0 0.0
2017-Nov-11 15:00N 50°51' W 001°20'0 0.0
2017-Nov-11 14:30N 50°51' W 001°20'0 0.0
2017-Nov-11 14:00N 50°51' W 001°20'0 0.0
2017-Nov-11 13:30N 50°51' W 001°20'0 0.0
2017-Nov-11 13:00N 50°51' W 001°20'0 0.0
2017-Nov-11 12:30N 50°51' W 001°20'0 0.0
2017-Nov-11 12:00N 50°51' W 001°20'0 0.0
2017-Nov-11 11:30N 50°51' W 001°20'0 0.0
2017-Nov-11 11:00N 50°51' W 001°20'0 0.0
2017-Nov-11 10:30N 50°51' W 001°20'0 0.0
2017-Nov-11 10:00N 50°51' W 001°20'0 0.0
2017-Nov-11 09:30N 50°51' W 001°20'0 0.0
2017-Nov-11 09:00N 50°51' W 001°20'0 0.0
2017-Nov-11 08:30N 50°51' W 001°20'0 0.0
2017-Nov-11 08:00N 50°51' W 001°20'0 0.0
2017-Nov-11 07:30N 50°51' W 001°20'0 0.0
2017-Nov-11 07:00N 50°51' W 001°20'0 0.0
2017-Nov-11 06:30N 50°51' W 001°20'0 0.0
2017-Nov-11 06:00N 50°51' W 001°20'0 0.0
2017-Nov-11 05:30N 50°51' W 001°20'0 0.0
2017-Nov-11 05:00N 50°51' W 001°20'0 0.0
2017-Nov-11 04:30N 50°51' W 001°20'0 0.0
2017-Nov-11 04:00N 50°51' W 001°20'0 0.0
2017-Nov-11 03:30N 50°51' W 001°20'0 0.0
2017-Nov-11 03:00N 50°51' W 001°20'0 0.0
2017-Nov-11 02:30N 50°51' W 001°20'0 0.0
2017-Nov-11 02:00N 50°51' W 001°20'0 0.0
2017-Nov-11 01:30N 50°51' W 001°20'0 0.0
2017-Nov-11 01:00N 50°51' W 001°20'0 0.0
2017-Nov-11 00:30N 50°51' W 001°20'0 0.0
2017-Nov-11 00:00N 50°51' W 001°20'0 0.0
2017-Nov-10 23:30N 50°51' W 001°20'0 0.0
2017-Nov-10 23:00N 50°51' W 001°20'0 0.0
2017-Nov-10 22:30N 50°51' W 001°20'0 0.0
2017-Nov-10 22:00N 50°51' W 001°20'0 0.0
2017-Nov-10 21:30N 50°51' W 001°20'0 0.0
2017-Nov-10 21:00N 50°51' W 001°20'0 0.0
2017-Nov-10 20:30N 50°51' W 001°20'0 0.0
2017-Nov-10 20:00N 50°51' W 001°20'0 0.0
2017-Nov-10 19:30N 50°51' W 001°20'0 0.0
2017-Nov-10 19:00N 50°51' W 001°20'0 0.0
2017-Nov-10 18:30N 50°51' W 001°20'0 0.0
2017-Nov-10 18:00N 50°51' W 001°20'0 0.0
2017-Nov-10 17:30N 50°51' W 001°20'0 0.0
2017-Nov-10 17:00N 50°51' W 001°20'0 0.0
2017-Nov-10 16:30N 50°51' W 001°20'0 0.0
2017-Nov-10 16:00N 50°51' W 001°20'0 0.0
2017-Nov-10 15:30N 50°51' W 001°20'0 0.0
2017-Nov-10 15:00N 50°51' W 001°20'0 0.0
2017-Nov-10 14:30N 50°51' W 001°20'0 0.0
2017-Nov-10 14:00N 50°51' W 001°20'0 0.0
2017-Nov-10 13:30N 50°51' W 001°20'0 0.0
2017-Nov-10 13:00N 50°51' W 001°20'0 0.0
2017-Nov-10 12:30N 50°51' W 001°20'0 0.0
2017-Nov-10 12:00N 50°51' W 001°20'0 0.0
2017-Nov-10 11:30N 50°51' W 001°20'0 0.0
2017-Nov-10 11:00N 50°51' W 001°20'0 0.0
2017-Nov-10 10:30N 50°51' W 001°20'0 0.0
2017-Nov-10 10:00N 50°51' W 001°20'0 0.0
2017-Nov-10 09:29N 50°51' W 001°20'0 0.0
2017-Nov-10 08:59N 50°51' W 001°20'0 0.0
2017-Nov-10 08:29N 50°51' W 001°20'0 0.0
2017-Nov-10 07:59N 50°51' W 001°20'0 0.0
2017-Nov-10 07:29N 50°51' W 001°20'0 0.0
2017-Nov-10 06:59N 50°51' W 001°20'0 0.0
2017-Nov-10 06:29N 50°51' W 001°20'0 0.0
2017-Nov-10 05:59N 50°51' W 001°20'0 0.0
2017-Nov-10 05:29N 50°51' W 001°20'0 0.0
2017-Nov-10 04:59N 50°51' W 001°20'0 0.0
2017-Nov-10 04:29N 50°51' W 001°20'0 0.0
2017-Nov-10 03:59N 50°51' W 001°20'0 0.0
2017-Nov-10 03:29N 50°51' W 001°20'0 0.0
2017-Nov-10 02:59N 50°51' W 001°20'0 0.0
2017-Nov-10 02:29N 50°51' W 001°20'0 0.0
2017-Nov-10 01:59N 50°51' W 001°20'0 0.0
2017-Nov-10 01:29N 50°51' W 001°20'0 0.0
2017-Nov-10 01:00N 50°51' W 001°20'1 1.2
2017-Nov-10 00:30N 50°50' W 001°19'  

Dump ship's entire track history